Time;durP1;ratioP1;P1;durP2;ratioP2;P2;SDS_P1;SDS_P2;PMS_P1;PMS_P2;Temp;Humidity;BMP_temperature;BMP_pressure;BME280_temperature;BME280_humidity;BME280_pressure;Samples;Min_cycle;Max_cycle;Signal;HPM_P1;HPM_P2
2023/12/22 00:00:10;;;;;;;7.10;2.27;;;4.80;40.50;;;;;;5019420;28;20496;-68
2023/12/22 00:02:38;;;;;;;10.87;2.33;;;4.70;60.20;;;;;;5019121;28;20456;-68
2023/12/22 00:05:05;;;;;;;10.27;2.43;;;4.80;99.90;;;;;;5018939;28;20460;-67
2023/12/22 00:07:33;;;;;;;7.40;3.50;;;4.80;99.90;;;;;;5018980;28;20460;-69
2023/12/22 00:10:01;;;;;;;10.07;3.00;;;4.80;99.90;;;;;;5020394;28;20550;-68
2023/12/22 00:12:29;;;;;;;9.30;3.57;;;4.80;99.90;;;;;;5020249;28;20558;-67
2023/12/22 00:14:56;;;;;;;8.07;2.83;;;4.70;99.90;;;;;;5020110;28;20460;-69
2023/12/22 00:17:23;;;;;;;11.80;2.70;;;4.70;1.00;;;;;;5020601;28;20910;-68
2023/12/22 00:19:50;;;;;;;7.77;2.80;;;4.70;40.90;;;;;;5019447;28;20843;-69
2023/12/22 00:22:17;;;;;;;10.80;2.60;;;4.70;99.90;;;;;;5020170;28;20542;-69
2023/12/22 00:24:45;;;;;;;9.03;3.80;;;4.60;1.00;;;;;;5020087;28;20765;-69
2023/12/22 00:27:13;;;;;;;12.53;4.50;;;4.60;99.90;;;;;;5019781;28;20464;-69
2023/12/22 00:29:40;;;;;;;9.73;2.40;;;4.60;99.90;;;;;;5020028;28;20785;-69
2023/12/22 00:32:09;;;;;;;10.43;2.33;;;4.60;1.00;;;;;;5020420;28;20932;-70
2023/12/22 00:34:37;;;;;;;6.20;2.57;;;4.60;1.00;;;;;;5021668;28;20474;-71
2023/12/22 00:37:05;;;;;;;9.57;2.70;;;4.60;1.00;;;;;;5002833;28;20556;-70
2023/12/22 00:39:32;;;;;;;11.00;3.07;;;4.60;99.90;;;;;;5002131;28;20843;-72
2023/12/22 00:42:01;;;;;;;10.23;3.00;;;4.60;1.00;;;;;;5003329;28;20804;-69
2023/12/22 00:44:30;;;;;;;9.90;3.20;;;4.70;99.90;;;;;;5003762;28;20439;-70
2023/12/22 00:46:57;;;;;;;9.30;3.10;;;4.70;1.00;;;;;;5004062;28;20480;-69
2023/12/22 00:49:24;;;;;;;7.87;3.13;;;4.70;1.00;;;;;;5005790;28;20524;-70
2023/12/22 00:51:51;;;;;;;13.13;3.27;;;4.80;17.40;;;;;;5004688;28;20529;-70
2023/12/22 00:54:18;;;;;;;8.43;2.73;;;4.80;1.00;;;;;;5006101;28;20575;-70
2023/12/22 00:56:45;;;;;;;9.73;3.10;;;4.80;77.60;;;;;;5003994;28;21001;-70
2023/12/22 00:59:12;;;;;;;8.20;3.40;;;4.70;99.90;;;;;;5004372;28;20528;-72
2023/12/22 01:01:41;;;;;;;8.80;3.10;;;4.80;1.00;;;;;;5005742;28;20531;-70
2023/12/22 01:04:09;;;;;;;12.13;3.90;;;4.80;1.00;;;;;;5005944;28;20567;-70
2023/12/22 01:06:38;;;;;;;8.70;2.63;;;4.80;99.90;;;;;;5003900;28;20503;-70
2023/12/22 01:09:06;;;;;;;10.70;2.73;;;4.80;99.90;;;;;;5002597;28;20468;-70
2023/12/22 01:11:33;;;;;;;10.53;3.47;;;4.90;1.00;;;;;;5001218;28;20461;-70
2023/12/22 01:14:00;;;;;;;10.83;2.93;;;4.90;1.00;;;;;;4999709;28;20492;-67
2023/12/22 01:16:28;;;;;;;7.33;2.90;;;4.90;1.00;;;;;;5000207;28;20496;-66
2023/12/22 01:18:56;;;;;;;9.73;3.63;;;5.00;68.70;;;;;;4999690;28;20507;-66
2023/12/22 01:21:24;;;;;;;9.00;2.80;;;5.00;99.90;;;;;;4999663;28;20538;-67
2023/12/22 01:23:51;;;;;;;10.00;3.13;;;5.00;99.90;;;;;;4999950;28;20465;-68
2023/12/22 01:26:18;;;;;;;9.97;3.20;;;5.00;1.00;;;;;;5000623;28;20465;-68
2023/12/22 01:28:45;;;;;;;10.00;3.17;;;5.00;1.00;;;;;;5000783;28;20563;-67
2023/12/22 01:31:12;;;;;;;11.57;4.03;;;5.00;36.50;;;;;;5000636;28;20465;-66
2023/12/22 01:33:40;;;;;;;7.93;3.33;;;5.00;99.90;;;;;;5000605;28;20467;-67
2023/12/22 01:36:09;;;;;;;8.50;3.03;;;5.00;1.00;;;;;;4999759;28;20518;-69
2023/12/22 01:38:36;;;;;;;9.40;2.80;;;5.00;98.90;;;;;;5000151;28;20922;-68
2023/12/22 01:41:03;;;;;;;14.00;3.17;;;5.00;1.00;;;;;;4999844;28;20453;-67
2023/12/22 01:43:30;;;;;;;8.20;3.07;;;5.00;99.90;;;;;;5000478;28;20467;-66
2023/12/22 01:46:00;;;;;;;8.07;2.47;;;5.00;1.00;;;;;;4999050;28;20461;-68
2023/12/22 01:48:28;;;;;;;5.13;2.33;;;4.90;1.00;;;;;;4998731;28;20461;-65
2023/12/22 01:50:56;;;;;;;6.37;2.20;;;4.90;99.90;;;;;;4998712;28;20893;-64
2023/12/22 01:53:26;;;;;;;6.30;2.10;;;4.70;92.30;;;;;;4999151;28;20460;-63
2023/12/22 01:55:55;;;;;;;7.53;2.63;;;4.40;68.80;;;;;;4999756;28;20949;-66
2023/12/22 01:58:24;;;;;;;7.30;2.70;;;4.00;99.90;;;;;;4999886;28;20441;-67
2023/12/22 02:00:53;;;;;;;4.70;1.60;;;3.50;99.90;;;;;;4999570;28;20471;-69
2023/12/22 02:03:21;;;;;;;4.70;2.73;;;3.20;1.00;;;;;;4999369;28;20461;-64
2023/12/22 02:05:48;;;;;;;5.47;2.00;;;3.10;1.00;;;;;;4999394;28;20871;-65
2023/12/22 02:08:18;;;;;;;10.43;2.53;;;3.10;1.00;;;;;;4999142;28;20497;-65
2023/12/22 02:10:47;;;;;;;6.63;2.10;;;3.10;99.90;;;;;;4999250;28;20898;-65
2023/12/22 02:13:14;;;;;;;11.67;2.77;;;3.20;4.80;;;;;;4999278;28;20891;-65
2023/12/22 02:15:42;;;;;;;5.10;2.10;;;3.40;1.00;;;;;;4999472;28;20555;-66
2023/12/22 02:18:14;;;;;;;10.80;3.30;;;3.50;1.00;;;;;;4998776;28;20835;-64
2023/12/22 02:20:43;;;;;;;5.50;2.13;;;3.60;99.90;;;;;;4998489;28;20503;-64
2023/12/22 02:23:12;;;;;;;11.33;2.60;;;3.80;99.90;;;;;;4998497;28;20959;-64
2023/12/22 02:25:39;;;;;;;4.53;2.20;;;3.80;99.90;;;;;;4998835;28;20439;-64
2023/12/22 02:28:10;;;;;;;5.30;2.37;;;3.80;20.40;;;;;;4998559;28;20528;-65
2023/12/22 02:30:44;;;;;;;7.50;2.90;;;3.80;99.90;;;;;;4998895;28;20453;-65
2023/12/22 02:33:13;;;;;;;7.40;2.30;;;3.80;1.00;;;;;;4998805;28;20873;-67
2023/12/22 02:35:42;;;;;;;10.60;4.73;;;3.90;1.00;;;;;;4998435;28;20555;-64
2023/12/22 02:38:12;;;;;;;4.60;2.10;;;4.00;1.00;;;;;;4998043;28;20930;-66
2023/12/22 02:40:41;;;;;;;3.60;1.90;;;4.00;1.10;;;;;;4998208;28;20500;-65
2023/12/22 02:43:09;;;;;;;7.63;2.33;;;4.00;99.90;;;;;;4998550;28;20930;-67
2023/12/22 02:45:36;;;;;;;10.20;2.40;;;4.00;99.90;;;;;;4998283;28;20461;-65
2023/12/22 02:48:04;;;;;;;8.13;2.47;;;4.10;99.90;;;;;;4998734;28;20548;-67
2023/12/22 02:50:31;;;;;;;7.60;2.37;;;4.10;1.00;;;;;;4998069;28;20457;-67
2023/12/22 02:52:58;;;;;;;7.83;2.63;;;4.10;99.90;;;;;;4998562;28;20465;-67
2023/12/22 02:55:25;;;;;;;9.00;3.10;;;4.20;1.00;;;;;;4998583;28;20555;-65
2023/12/22 02:57:54;;;;;;;7.57;1.97;;;4.20;99.90;;;;;;4999089;28;20969;-67
2023/12/22 03:00:21;;;;;;;8.70;2.50;;;4.20;1.00;;;;;;5001340;28;20497;-67
2023/12/22 03:02:48;;;;;;;7.60;3.37;;;4.20;99.90;;;;;;5001991;28;20446;-67
2023/12/22 03:05:15;;;;;;;12.57;3.97;;;4.20;1.00;;;;;;5001726;28;20533;-66
2023/12/22 03:07:42;;;;;;;8.17;3.17;;;4.30;1.00;;;;;;5002127;28;20460;-65
2023/12/22 03:10:10;;;;;;;9.37;2.90;;;4.30;11.70;;;;;;5001955;28;20457;-64
2023/12/22 03:12:37;;;;;;;9.43;3.03;;;4.30;10.30;;;;;;5001818;28;20793;-65
2023/12/22 03:15:07;;;;;;;13.57;3.13;;;4.20;1.00;;;;;;5001789;28;20500;-66
2023/12/22 03:17:35;;;;;;;11.83;3.20;;;4.20;99.90;;;;;;5001764;28;20745;-66
2023/12/22 03:20:02;;;;;;;6.97;2.57;;;4.20;99.90;;;;;;5001306;28;20959;-65
2023/12/22 03:22:29;;;;;;;6.70;2.50;;;4.20;1.00;;;;;;5001447;28;20467;-65
2023/12/22 03:24:56;;;;;;;10.73;3.33;;;4.20;12.00;;;;;;5001467;28;20460;-65
2023/12/22 03:27:23;;;;;;;8.90;2.60;;;4.20;1.00;;;;;;5001692;28;20559;-66
2023/12/22 03:29:50;;;;;;;8.83;3.03;;;4.20;40.40;;;;;;5001319;28;20476;-67
2023/12/22 03:32:19;;;;;;;4.90;2.50;;;4.20;99.90;;;;;;5001519;28;20467;-66
2023/12/22 03:34:46;;;;;;;7.90;2.87;;;4.20;99.90;;;;;;5000989;28;20617;-67
2023/12/22 03:37:14;;;;;;;7.73;2.83;;;4.20;99.90;;;;;;5001346;28;20502;-70
2023/12/22 03:39:41;;;;;;;11.10;3.00;;;4.20;99.90;;;;;;5000833;28;20489;-67
2023/12/22 03:42:08;;;;;;;9.63;3.10;;;4.30;99.90;;;;;;5000633;28;20559;-66
2023/12/22 03:44:35;;;;;;;6.13;3.03;;;4.30;99.90;;;;;;5000506;28;20463;-66
2023/12/22 03:47:02;;;;;;;8.20;2.60;;;4.40;99.90;;;;;;5000739;28;20580;-67
2023/12/22 03:49:31;;;;;;;8.77;3.50;;;4.40;99.90;;;;;;5000966;28;20440;-67
2023/12/22 03:51:58;;;;;;;8.50;3.00;;;4.40;99.90;;;;;;5000668;28;20555;-66
2023/12/22 03:54:25;;;;;;;11.50;2.97;;;4.40;99.90;;;;;;5000380;28;20555;-66
2023/12/22 03:56:52;;;;;;;12.03;3.67;;;4.40;99.90;;;;;;5000686;28;20461;-66
2023/12/22 03:59:20;;;;;;;8.07;2.93;;;4.50;99.90;;;;;;5000331;28;20461;-67
2023/12/22 04:01:52;;;;;;;8.63;2.33;;;4.50;99.90;;;;;;5000405;28;20860;-67
2023/12/22 04:04:21;;;;;;;10.10;3.00;;;4.50;99.90;;;;;;5000351;28;20930;-66
2023/12/22 04:06:50;;;;;;;11.70;3.23;;;4.50;99.90;;;;;;4999721;28;20559;-66
2023/12/22 04:09:17;;;;;;;11.70;3.20;;;4.50;99.90;;;;;;4999921;28;20560;-67
2023/12/22 04:11:44;;;;;;;9.50;2.57;;;4.50;99.90;;;;;;5000269;28;20431;-67
2023/12/22 04:14:12;;;;;;;12.27;2.83;;;4.50;99.90;;;;;;4999577;28;20461;-68
2023/12/22 04:16:39;;;;;;;12.17;3.00;;;4.50;99.90;;;;;;4999849;28;20492;-68
2023/12/22 04:19:06;;;;;;;8.13;3.30;;;4.50;99.90;;;;;;4999465;28;20542;-68
2023/12/22 04:21:34;;;;;;;12.20;3.83;;;4.50;99.90;;;;;;5000307;28;20489;-68
2023/12/22 04:24:03;;;;;;;9.20;3.10;;;4.50;99.90;;;;;;5000154;28;20457;-68
2023/12/22 04:26:30;;;;;;;11.23;3.70;;;4.40;99.90;;;;;;4999702;28;20496;-69
2023/12/22 04:28:57;;;;;;;10.30;2.90;;;4.50;99.90;;;;;;4999823;28;20567;-68
2023/12/22 04:31:24;;;;;;;12.30;4.10;;;4.40;99.90;;;;;;5000123;28;20769;-68
2023/12/22 04:33:51;;;;;;;9.43;3.23;;;4.40;99.90;;;;;;4999934;28;20465;-68
2023/12/22 04:36:18;;;;;;;11.17;3.73;;;4.40;99.90;;;;;;4999802;28;20546;-68
2023/12/22 04:38:45;;;;;;;11.40;4.13;;;4.40;99.90;;;;;;4999791;28;20472;-69
2023/12/22 04:41:14;;;;;;;14.00;3.50;;;4.40;99.90;;;;;;4999641;28;20504;-68
2023/12/22 04:43:41;;;;;;;23.53;4.00;;;4.40;99.90;;;;;;5000050;28;20541;-68
2023/12/22 04:46:08;;;;;;;8.17;3.60;;;4.40;99.90;;;;;;5000369;28;20465;-69
2023/12/22 04:48:35;;;;;;;11.30;3.80;;;4.50;99.90;;;;;;4999843;28;20465;-69
2023/12/22 04:51:03;;;;;;;17.60;3.93;;;4.40;99.90;;;;;;5000506;28;20520;-68
2023/12/22 04:53:30;;;;;;;18.33;4.03;;;4.40;99.90;;;;;;4999766;28;20483;-67
2023/12/22 04:55:57;;;;;;;10.90;4.10;;;4.40;99.90;;;;;;4999673;28;20482;-67
2023/12/22 04:58:26;;;;;;;13.73;3.23;;;4.50;99.90;;;;;;4999830;28;20461;-64
2023/12/22 05:00:53;;;;;;;10.73;3.10;;;4.50;99.90;;;;;;4999411;28;20496;-66
2023/12/22 05:03:20;;;;;;;15.10;4.43;;;4.60;99.90;;;;;;4999908;28;20515;-66
2023/12/22 05:05:47;;;;;;;12.80;3.40;;;4.70;99.90;;;;;;5000068;28;20466;-64
2023/12/22 05:08:16;;;;;;;11.37;3.27;;;4.50;1.00;;;;;;4999386;28;20817;-65
2023/12/22 05:10:43;;;;;;;12.50;4.33;;;4.50;1.00;;;;;;4998875;28;20461;-68
2023/12/22 05:13:10;;;;;;;9.60;3.40;;;4.50;1.00;;;;;;4999696;28;20457;-67
2023/12/22 05:15:39;;;;;;;10.00;3.70;;;4.50;1.00;;;;;;4999720;28;20561;-67
2023/12/22 05:18:06;;;;;;;9.60;4.13;;;4.50;62.50;;;;;;4998324;28;20495;-67
2023/12/22 05:20:35;;;;;;;10.73;3.53;;;4.50;99.90;;;;;;4998911;28;20488;-66
2023/12/22 05:23:02;;;;;;;11.23;3.40;;;4.60;99.90;;;;;;4999740;28;20559;-65
2023/12/22 05:25:30;;;;;;;11.80;3.57;;;4.60;99.90;;;;;;4999899;28;20468;-64
2023/12/22 05:27:57;;;;;;;14.80;3.60;;;4.60;1.00;;;;;;4999549;28;20468;-62
2023/12/22 05:30:25;;;;;;;15.40;3.90;;;4.60;99.90;;;;;;4998815;28;20555;-64
2023/12/22 05:32:54;;;;;;;6.20;2.77;;;4.50;12.30;;;;;;4998929;28;20461;-64
2023/12/22 05:35:22;;;;;;;8.30;2.90;;;4.50;1.00;;;;;;4999076;28;20804;-65
2023/12/22 05:37:49;;;;;;;8.43;3.23;;;4.40;1.00;;;;;;4999209;28;20777;-66
2023/12/22 05:40:16;;;;;;;9.30;3.17;;;4.40;1.00;;;;;;4998601;28;20471;-66
2023/12/22 05:42:43;;;;;;;8.40;3.67;;;4.40;1.00;;;;;;4999193;28;20555;-66
2023/12/22 05:45:11;;;;;;;7.70;2.90;;;4.40;4.90;;;;;;4999091;28;20564;-66
2023/12/22 05:47:39;;;;;;;8.30;3.17;;;4.40;99.90;;;;;;4998882;28;20475;-66
2023/12/22 05:50:10;;;;;;;10.70;3.20;;;4.40;99.90;;;;;;4998943;28;20461;-66
2023/12/22 05:52:37;;;;;;;7.17;3.50;;;4.40;99.90;;;;;;4998492;28;20464;-66
2023/12/22 05:55:06;;;;;;;13.13;3.80;;;4.40;99.90;;;;;;4998670;28;20471;-66
2023/12/22 05:57:33;;;;;;;9.13;3.47;;;4.40;99.90;;;;;;4997667;28;20467;-66
2023/12/22 06:00:00;;;;;;;6.90;3.90;;;4.40;99.90;;;;;;4998884;28;20485;-64
2023/12/22 06:02:27;;;;;;;7.17;3.13;;;4.40;99.90;;;;;;4998407;28;20461;-65
2023/12/22 06:04:54;;;;;;;5.63;2.83;;;4.40;99.90;;;;;;4998043;28;20472;-64
2023/12/22 06:07:24;;;;;;;4.43;2.67;;;4.40;99.90;;;;;;4998331;28;20471;-65
2023/12/22 06:09:51;;;;;;;7.93;2.90;;;4.40;99.90;;;;;;4998575;28;20902;-66
2023/12/22 06:12:18;;;;;;;5.97;2.60;;;4.40;99.90;;;;;;4998373;28;20751;-66
2023/12/22 06:14:45;;;;;;;5.23;2.50;;;4.50;99.90;;;;;;4998078;28;20559;-66
2023/12/22 06:17:12;;;;;;;5.27;2.30;;;4.50;99.90;;;;;;4998346;28;20543;-67
2023/12/22 06:19:40;;;;;;;5.93;2.50;;;4.50;99.90;;;;;;4996446;28;20576;-68
2023/12/22 06:22:07;;;;;;;7.37;2.93;;;4.60;99.90;;;;;;4997023;28;20496;-66
2023/12/22 06:24:37;;;;;;;6.83;2.40;;;4.60;99.90;;;;;;4997611;28;20461;-67
2023/12/22 06:27:06;;;;;;;12.93;2.63;;;4.60;99.90;;;;;;4998041;28;20764;-67
2023/12/22 06:29:34;;;;;;;7.17;2.43;;;4.70;99.90;;;;;;4997787;28;20464;-67
2023/12/22 06:32:01;;;;;;;13.43;3.13;;;4.70;99.90;;;;;;4998667;28;20453;-67
2023/12/22 06:34:28;;;;;;;12.13;3.60;;;4.80;99.90;;;;;;5001914;28;20865;-66
2023/12/22 06:36:56;;;;;;;18.67;3.90;;;4.80;99.90;;;;;;5002431;28;20787;-66
2023/12/22 06:39:23;;;;;;;10.43;3.93;;;4.80;99.90;;;;;;5002292;28;20563;-67
2023/12/22 06:41:51;;;;;;;14.53;4.20;;;4.90;99.90;;;;;;5001925;28;20493;-67
2023/12/22 06:44:19;;;;;;;11.90;3.47;;;4.90;99.90;;;;;;5003783;28;20893;-66
2023/12/22 06:46:46;;;;;;;8.67;3.60;;;4.90;99.90;;;;;;5001350;28;20460;-66
2023/12/22 06:49:14;;;;;;;11.80;3.80;;;4.90;99.90;;;;;;5001597;28;20919;-67
2023/12/22 06:51:42;;;;;;;10.00;2.90;;;4.90;79.90;;;;;;5001448;28;20497;-67
2023/12/22 06:54:09;;;;;;;16.27;4.00;;;4.90;1.00;;;;;;5001558;28;20464;-68
2023/12/22 06:56:36;;;;;;;15.03;3.67;;;5.00;1.00;;;;;;5001427;28;20460;-67
2023/12/22 06:59:05;;;;;;;13.00;4.93;;;4.90;1.00;;;;;;5001334;28;20461;-67
2023/12/22 07:01:33;;;;;;;15.93;4.07;;;4.90;1.00;;;;;;5001200;28;20591;-67
2023/12/22 07:04:01;;;;;;;17.40;4.30;;;4.90;1.00;;;;;;5001484;28;20559;-68
2023/12/22 07:06:29;;;;;;;15.00;5.83;;;5.10;65.80;;;;;;5001442;28;20457;-68
2023/12/22 07:09:13;;;;;;;12.27;4.33;;;5.10;99.90;;;;;;5000953;28;20469;-68
2023/12/22 07:11:42;;;;;;;14.10;5.27;;;5.00;99.90;;;;;;5000667;28;20539;-69
2023/12/22 07:14:11;;;;;;;13.67;5.33;;;5.00;99.90;;;;;;5000984;28;20970;-68
2023/12/22 07:16:38;;;;;;;11.00;5.07;;;5.00;99.90;;;;;;5000624;28;20500;-68
2023/12/22 07:19:06;;;;;;;10.20;3.67;;;5.00;99.90;;;;;;5000383;28;20492;-68
2023/12/22 07:21:33;;;;;;;9.30;4.20;;;5.00;99.90;;;;;;5001005;28;20493;-68
2023/12/22 07:24:00;;;;;;;14.13;5.00;;;5.00;99.90;;;;;;5001398;28;20467;-68
2023/12/22 07:26:27;;;;;;;18.37;4.57;;;5.00;99.90;;;;;;5000793;28;20515;-69
2023/12/22 07:28:55;;;;;;;11.50;3.80;;;4.90;99.90;;;;;;5000598;28;20472;-68
2023/12/22 07:31:24;;;;;;;12.47;3.60;;;4.90;99.90;;;;;;5000617;28;20786;-68
2023/12/22 07:33:51;;;;;;;8.90;3.80;;;5.00;99.90;;;;;;5000541;28;20460;-68
2023/12/22 07:36:21;;;;;;;8.80;4.87;;;5.00;99.90;;;;;;5000527;28;20562;-69
2023/12/22 07:38:48;;;;;;;9.87;4.00;;;5.00;99.90;;;;;;5000362;28;20754;-69
2023/12/22 07:41:16;;;;;;;17.90;4.10;;;5.10;99.90;;;;;;5000243;28;20495;-69
2023/12/22 07:43:43;;;;;;;13.80;3.83;;;5.10;99.90;;;;;;4999598;28;20466;-69
2023/12/22 07:46:17;;;;;;;12.10;4.13;;;5.10;99.90;;;;;;5000022;28;20493;-69
2023/12/22 07:48:46;;;;;;;11.13;3.17;;;5.20;99.90;;;;;;5000619;28;20500;-69
2023/12/22 07:51:13;;;;;;;9.73;3.90;;;5.30;99.90;;;;;;5000462;28;20460;-69
2023/12/22 07:53:41;;;;;;;15.70;4.43;;;5.40;99.90;;;;;;5000545;28;20523;-68
2023/12/22 07:56:10;;;;;;;12.80;4.50;;;5.50;99.90;;;;;;4999880;28;20965;-67
2023/12/22 07:58:37;;;;;;;12.30;3.87;;;5.60;99.90;;;;;;4999256;28;20545;-66
2023/12/22 08:01:05;;;;;;;16.33;5.10;;;5.60;99.90;;;;;;5010907;28;20773;-68
2023/12/22 08:03:32;;;;;;;20.33;5.27;;;5.70;99.90;;;;;;5017631;28;20514;-67
2023/12/22 08:06:01;;;;;;;13.07;4.30;;;5.80;99.90;;;;;;5019915;28;20548;-67
2023/12/22 08:08:28;;;;;;;13.53;4.80;;;5.80;99.90;;;;;;5017857;28;20478;-68
2023/12/22 08:10:56;;;;;;;18.70;4.30;;;5.90;99.90;;;;;;5017919;28;20772;-68
2023/12/22 08:13:23;;;;;;;11.63;4.03;;;6.00;99.90;;;;;;5018019;28;20487;-68
2023/12/22 08:15:54;;;;;;;13.63;4.50;;;6.00;93.40;;;;;;5017949;28;20510;-69
2023/12/22 08:18:21;;;;;;;16.40;5.00;;;6.10;99.90;;;;;;5017356;28;20519;-69
2023/12/22 08:20:49;;;;;;;9.50;4.40;;;6.10;1.00;;;;;;5017507;28;20459;-69
2023/12/22 08:23:18;;;;;;;13.17;4.30;;;6.20;1.00;;;;;;5017859;28;20497;-69
2023/12/22 08:25:45;;;;;;;17.23;5.77;;;6.30;99.90;;;;;;5018285;28;20628;-71
2023/12/22 08:28:13;;;;;;;12.23;4.80;;;6.30;1.00;;;;;;5017309;28;20973;-70
2023/12/22 08:30:40;;;;;;;15.03;5.00;;;6.30;1.00;;;;;;5017190;28;20497;-69
2023/12/22 08:33:07;;;;;;;16.77;4.60;;;6.40;1.00;;;;;;5018312;28;20452;-70
2023/12/22 08:35:35;;;;;;;13.77;5.30;;;6.40;99.90;;;;;;5019056;28;20470;-68
2023/12/22 08:38:02;;;;;;;14.10;5.40;;;6.40;1.00;;;;;;5019055;28;20460;-71
2023/12/22 08:40:31;;;;;;;12.53;4.43;;;6.50;99.90;;;;;;5019388;28;20460;-71
2023/12/22 08:43:00;;;;;;;14.23;5.07;;;6.50;1.00;;;;;;5019460;28;20764;-71
2023/12/22 08:45:31;;;;;;;25.90;6.43;;;6.50;99.90;;;;;;5019551;28;20466;-71
2023/12/22 08:47:58;;;;;;;17.50;4.70;;;6.50;99.90;;;;;;5019682;28;20884;-71
2023/12/22 08:50:25;;;;;;;17.13;6.50;;;6.50;99.90;;;;;;5018811;28;20969;-72
2023/12/22 08:52:53;;;;;;;19.60;6.10;;;6.50;1.00;;;;;;5019106;28;20801;-69
2023/12/22 08:55:22;;;;;;;20.77;6.97;;;6.50;1.00;;;;;;5019229;28;20558;-73
2023/12/22 08:57:51;;;;;;;18.07;6.03;;;6.50;1.00;;;;;;5020878;28;20435;-71
2023/12/22 09:00:18;;;;;;;18.33;5.93;;;6.50;96.50;;;;;;5018842;28;20518;-74
2023/12/22 09:02:46;;;;;;;16.23;5.30;;;6.50;1.00;;;;;;5018597;28;20595;-72
2023/12/22 09:05:13;;;;;;;22.03;5.50;;;6.50;1.00;;;;;;5019350;28;20541;-72
2023/12/22 09:07:40;;;;;;;24.03;5.70;;;6.50;99.90;;;;;;5019043;28;20526;-70
2023/12/22 09:10:08;;;;;;;20.13;6.80;;;6.60;99.90;;;;;;5018259;28;20969;-71
2023/12/22 09:12:35;;;;;;;18.53;6.90;;;6.60;1.00;;;;;;5018314;28;20498;-70
2023/12/22 09:15:05;;;;;;;23.37;6.63;;;6.60;1.00;;;;;;5015471;28;20952;-69
2023/12/22 09:17:34;;;;;;;27.27;6.97;;;6.70;15.70;;;;;;5015832;28;20554;-65
2023/12/22 09:20:02;;;;;;;16.80;5.63;;;6.80;99.90;;;;;;4999657;28;20488;-66
2023/12/22 09:22:29;;;;;;;21.63;7.93;;;6.70;1.00;;;;;;5017222;28;20495;-67
2023/12/22 09:24:56;;;;;;;23.80;7.77;;;6.70;1.00;;;;;;5017563;28;20772;-66
2023/12/22 09:27:24;;;;;;;30.90;7.47;;;6.80;99.90;;;;;;5017999;28;20980;-66
2023/12/22 09:29:51;;;;;;;25.50;7.17;;;6.80;99.90;;;;;;5017975;28;20523;-66
2023/12/22 09:32:20;;;;;;;30.77;7.70;;;6.90;99.90;;;;;;5017574;28;20543;-66
2023/12/22 09:34:48;;;;;;;20.40;6.90;;;6.80;99.90;;;;;;5017802;28;20904;-67
2023/12/22 09:37:15;;;;;;;25.33;7.40;;;6.90;99.90;;;;;;5017750;28;20464;-66
2023/12/22 09:39:43;;;;;;;33.57;7.50;;;6.90;99.90;;;;;;5018193;28;20554;-65
2023/12/22 09:42:11;;;;;;;25.80;6.80;;;6.90;99.90;;;;;;5017700;28;20495;-64
2023/12/22 09:44:43;;;;;;;20.97;6.03;;;6.90;99.90;;;;;;5017858;28;20668;-65
2023/12/22 09:47:12;;;;;;;12.07;6.10;;;6.90;99.90;;;;;;5017757;28;20943;-66
2023/12/22 09:49:43;;;;;;;25.33;8.07;;;6.80;99.90;;;;;;5017472;28;20439;-65
2023/12/22 09:52:11;;;;;;;27.97;7.83;;;6.80;99.90;;;;;;5017096;28;20539;-65
2023/12/22 09:54:42;;;;;;;24.70;7.93;;;6.80;99.90;;;;;;5016834;28;20542;-66
2023/12/22 09:57:10;;;;;;;18.57;6.80;;;6.80;99.90;;;;;;5016360;28;20769;-66
2023/12/22 09:59:38;;;;;;;26.43;7.37;;;6.80;99.90;;;;;;5000785;28;20752;-66
2023/12/22 10:02:07;;;;;;;19.17;6.77;;;6.80;99.90;;;;;;4996841;28;20500;-64
2023/12/22 10:04:35;;;;;;;28.30;7.37;;;6.90;99.90;;;;;;4997297;28;20908;-64
2023/12/22 10:07:05;;;;;;;21.57;7.50;;;6.80;99.90;;;;;;4997523;28;20556;-64
2023/12/22 10:09:33;;;;;;;23.00;7.40;;;6.90;99.90;;;;;;4996654;28;20555;-66
2023/12/22 10:12:03;;;;;;;31.80;9.50;;;6.90;99.90;;;;;;4998014;28;20488;-64
2023/12/22 10:14:31;;;;;;;15.90;6.03;;;6.90;99.90;;;;;;4997439;28;20499;-65
2023/12/22 10:16:59;;;;;;;30.27;8.23;;;6.90;99.90;;;;;;4997003;28;20471;-66
2023/12/22 10:19:26;;;;;;;32.50;9.27;;;7.00;99.90;;;;;;4997362;28;20495;-66
2023/12/22 10:21:53;;;;;;;23.10;7.37;;;7.00;99.90;;;;;;4997393;28;20525;-66
2023/12/22 10:24:43;;;;;;;25.23;7.50;;;7.00;99.90;;;;;;4997195;28;20468;-66
2023/12/22 10:27:11;;;;;;;36.27;8.97;;;7.00;99.90;;;;;;4997480;28;20948;-67
2023/12/22 10:29:39;;;;;;;26.70;7.80;;;7.00;99.90;;;;;;4997634;28;20543;-66
2023/12/22 10:32:08;;;;;;;16.63;6.00;;;7.00;99.90;;;;;;4997237;28;20461;-67
2023/12/22 10:34:36;;;;;;;19.77;6.70;;;7.10;99.90;;;;;;4997299;28;20514;-65
2023/12/22 10:37:06;;;;;;;17.00;6.03;;;7.10;99.90;;;;;;4997080;28;20556;-67
2023/12/22 10:39:38;;;;;;;24.10;6.20;;;7.20;99.90;;;;;;4999983;28;20559;-67
2023/12/22 10:42:07;;;;;;;16.70;5.47;;;7.20;99.90;;;;;;5015474;28;20495;-65
2023/12/22 10:44:36;;;;;;;17.23;5.43;;;7.30;99.90;;;;;;5017236;28;20563;-64
2023/12/22 10:47:05;;;;;;;17.00;5.00;;;7.30;99.90;;;;;;5016614;28;20562;-65
2023/12/22 10:49:33;;;;;;;18.80;5.03;;;7.30;99.90;;;;;;5017284;28;20464;-65
2023/12/22 10:52:01;;;;;;;14.53;5.50;;;7.30;99.90;;;;;;5016566;28;21274;-65
2023/12/22 10:54:29;;;;;;;19.53;5.00;;;7.40;99.90;;;;;;4999395;28;20796;-65
2023/12/22 10:57:00;;;;;;;10.43;3.10;;;7.40;99.90;;;;;;5016630;28;20485;-63
2023/12/22 10:59:30;;;;;;;9.90;3.60;;;7.40;99.90;;;;;;5015981;28;20482;-65
2023/12/22 11:01:59;;;;;;;11.33;2.73;;;7.40;99.90;;;;;;5016239;28;20492;-63
2023/12/22 11:04:33;;;;;;;5.37;2.53;;;7.40;99.90;;;;;;5017031;28;20551;-63
2023/12/22 11:07:04;;;;;;;7.00;3.00;;;7.30;99.90;;;;;;5016887;28;20468;-63
2023/12/22 11:09:33;;;;;;;10.93;2.83;;;7.20;99.90;;;;;;5016736;28;20781;-64
2023/12/22 11:12:03;;;;;;;5.87;2.47;;;7.00;99.90;;;;;;5017158;28;20514;-63
2023/12/22 11:14:33;;;;;;;5.33;2.40;;;6.90;99.90;;;;;;5017404;28;20489;-64
2023/12/22 11:17:01;;;;;;;3.97;2.13;;;6.80;99.90;;;;;;5017094;28;20841;-65
2023/12/22 11:19:32;;;;;;;4.20;2.27;;;6.70;99.90;;;;;;5018057;28;20587;-63
2023/12/22 11:22:02;;;;;;;6.60;2.50;;;6.60;99.90;;;;;;5020333;28;20494;-66
2023/12/22 11:24:30;;;;;;;3.80;2.33;;;6.60;99.90;;;;;;5018830;28;20782;-66
2023/12/22 11:26:59;;;;;;;5.33;2.50;;;6.40;99.90;;;;;;5018762;28;20460;-65
2023/12/22 11:29:29;;;;;;;3.60;1.80;;;6.10;99.90;;;;;;5019084;28;20471;-64
2023/12/22 11:32:01;;;;;;;3.57;1.97;;;5.80;99.90;;;;;;5019387;28;20497;-65
2023/12/22 11:34:32;;;;;;;4.77;2.10;;;5.90;99.90;;;;;;5019360;28;20843;-64
2023/12/22 11:37:01;;;;;;;3.70;2.30;;;6.00;99.90;;;;;;5019003;28;20875;-65
2023/12/22 11:39:29;;;;;;;6.30;2.90;;;6.10;99.90;;;;;;5018769;28;20464;-66
2023/12/22 11:41:58;;;;;;;7.20;3.37;;;6.20;99.90;;;;;;5019057;28;20496;-65
2023/12/22 11:44:26;;;;;;;5.37;3.30;;;6.30;99.90;;;;;;5018469;28;20474;-66
2023/12/22 11:47:07;;;;;;;5.00;4.13;;;6.40;99.90;;;;;;5017825;28;20554;-66
2023/12/22 11:49:35;;;;;;;5.60;4.33;;;6.50;99.90;;;;;;5018946;28;20865;-65
2023/12/22 11:52:11;;;;;;;8.60;5.40;;;6.70;99.90;;;;;;5018592;28;20460;-66
2023/12/22 11:54:46;;;;;;;10.60;6.77;;;6.80;99.90;;;;;;5019603;28;20464;-66
2023/12/22 11:57:33;;;;;;;7.50;5.73;;;7.10;99.90;;;;;;5020122;28;20882;-66
2023/12/22 12:00:05;;;;;;;9.10;6.50;;;7.30;99.90;;;;;;4998782;28;20547;-67
2023/12/22 12:02:37;;;;;;;7.87;5.23;;;7.50;99.90;;;;;;5003912;28;20916;-67
2023/12/22 12:05:07;;;;;;;7.33;5.73;;;7.60;99.90;;;;;;5017535;28;20485;-67
2023/12/22 12:07:39;;;;;;;7.20;4.70;;;7.70;99.90;;;;;;5019589;28;20558;-67
2023/12/22 12:10:08;;;;;;;6.47;4.40;;;7.80;99.90;;;;;;5018935;28;20899;-67
2023/12/22 12:12:36;;;;;;;5.63;4.40;;;7.80;99.90;;;;;;5019966;28;20452;-67
2023/12/22 12:15:12;;;;;;;8.03;4.77;;;7.90;99.90;;;;;;5019697;28;20795;-65
2023/12/22 12:17:42;;;;;;;7.23;4.47;;;7.90;99.90;;;;;;5018546;28;20460;-66
2023/12/22 12:20:12;;;;;;;6.60;4.87;;;8.00;99.90;;;;;;5017786;28;20438;-66
2023/12/22 12:22:40;;;;;;;8.13;5.10;;;8.00;99.90;;;;;;5017729;28;20488;-66
2023/12/22 12:25:11;;;;;;;5.57;3.90;;;8.10;99.90;;;;;;5017943;28;20500;-66
2023/12/22 12:27:39;;;;;;;10.37;4.10;;;8.10;99.90;;;;;;5017521;28;20464;-66
2023/12/22 12:30:15;;;;;;;8.37;4.10;;;8.10;99.90;;;;;;5015526;28;20460;-66
2023/12/22 12:32:50;;;;;;;4.30;3.40;;;8.10;99.90;;;;;;5016423;28;20498;-66
2023/12/22 12:35:19;;;;;;;5.50;3.60;;;8.20;99.90;;;;;;5017608;28;20536;-67
2023/12/22 12:37:46;;;;;;;7.03;4.57;;;8.30;99.90;;;;;;5017802;28;20455;-67
2023/12/22 12:40:19;;;;;;;6.70;3.87;;;8.30;99.90;;;;;;5018039;28;20757;-67
2023/12/22 12:42:47;;;;;;;8.10;4.00;;;8.30;99.90;;;;;;5017779;28;20976;-68
2023/12/22 12:45:14;;;;;;;5.77;3.80;;;8.30;99.90;;;;;;5018966;28;20460;-67
2023/12/22 12:47:41;;;;;;;5.30;3.70;;;8.40;99.90;;;;;;5018953;28;20473;-69
2023/12/22 12:50:12;;;;;;;5.70;3.50;;;8.40;99.90;;;;;;5018082;28;20470;-68
2023/12/22 12:52:40;;;;;;;7.07;3.90;;;8.40;99.90;;;;;;5005328;28;20488;-70
2023/12/22 12:55:08;;;;;;;9.03;4.30;;;8.50;99.90;;;;;;4998757;28;20908;-64
2023/12/22 12:57:35;;;;;;;6.90;4.53;;;8.40;99.90;;;;;;4998419;28;20435;-66